sensor_id;sensor_type;location;lat;lon;timestamp;pressure;altitude;pressure_sealevel;temperature;humidity
7407;BME280;3745;56.964;24.128;2023-05-22T00:00:09;102268.47;;;14.67;100.00
7407;BME280;3745;56.964;24.128;2023-05-22T00:02:38;102228.88;;;14.43;100.00
7407;BME280;3745;56.964;24.128;2023-05-22T00:05:08;102175.56;;;14.12;100.00
7407;BME280;3745;56.964;24.128;2023-05-22T00:07:35;102233.84;;;14.37;100.00
7407;BME280;3745;56.964;24.128;2023-05-22T00:10:00;102264.75;;;14.52;100.00
7407;BME280;3745;56.964;24.128;2023-05-22T00:12:26;102262.25;;;14.54;100.00
7407;BME280;3745;56.964;24.128;2023-05-22T00:14:52;102266.47;;;14.53;100.00
7407;BME280;3745;56.964;24.128;2023-05-22T00:17:18;102191.63;;;14.08;100.00
7407;BME280;3745;56.964;24.128;2023-05-22T00:19:44;102230.28;;;14.29;100.00
7407;BME280;3745;56.964;24.128;2023-05-22T00:22:10;102225.25;;;14.32;100.00
7407;BME280;3745;56.964;24.128;2023-05-22T00:24:36;102254.50;;;14.49;100.00
7407;BME280;3745;56.964;24.128;2023-05-22T00:27:03;102247.56;;;14.42;100.00
7407;BME280;3745;56.964;24.128;2023-05-22T00:29:28;102230.34;;;14.32;100.00
7407;BME280;3745;56.964;24.128;2023-05-22T00:31:54;102259.53;;;14.46;100.00
7407;BME280;3745;56.964;24.128;2023-05-22T00:34:19;102196.72;;;14.08;100.00
7407;BME280;3745;56.964;24.128;2023-05-22T00:36:45;102250.00;;;14.38;100.00
7407;BME280;3745;56.964;24.128;2023-05-22T00:39:10;102250.81;;;14.35;100.00
7407;BME280;3745;56.964;24.128;2023-05-22T00:41:36;102255.16;;;14.41;100.00
7407;BME280;3745;56.964;24.128;2023-05-22T00:44:02;102257.69;;;14.39;100.00
7407;BME280;3745;56.964;24.128;2023-05-22T00:46:28;102226.72;;;14.21;100.00
7407;BME280;3745;56.964;24.128;2023-05-22T00:48:54;102255.91;;;14.37;100.00
7407;BME280;3745;56.964;24.128;2023-05-22T00:51:20;102250.66;;;14.29;100.00
7407;BME280;3745;56.964;24.128;2023-05-22T00:53:47;102256.50;;;14.25;100.00
7407;BME280;3745;56.964;24.128;2023-05-22T00:56:13;102245.28;;;14.17;100.00
7407;BME280;3745;56.964;24.128;2023-05-22T00:58:40;102245.41;;;14.23;100.00
7407;BME280;3745;56.964;24.128;2023-05-22T01:01:06;102248.84;;;14.25;100.00
7407;BME280;3745;56.964;24.128;2023-05-22T01:03:41;102247.16;;;14.24;100.00
7407;BME280;3745;56.964;24.128;2023-05-22T01:06:15;102234.25;;;14.18;100.00
7407;BME280;3745;56.964;24.128;2023-05-22T01:08:43;102250.44;;;14.20;100.00
7407;BME280;3745;56.964;24.128;2023-05-22T01:11:17;102242.69;;;14.16;100.00
7407;BME280;3745;56.964;24.128;2023-05-22T01:16:51;102241.81;;;14.15;100.00
7407;BME280;3745;56.964;24.128;2023-05-22T01:22:29;102235.09;;;14.17;100.00
7407;BME280;3745;56.964;24.128;2023-05-22T01:33:08;102203.75;;;13.81;100.00
7407;BME280;3745;56.964;24.128;2023-05-22T01:35:38;102180.38;;;13.61;100.00
7407;BME280;3745;56.964;24.128;2023-05-22T01:38:06;102200.00;;;13.67;100.00
7407;BME280;3745;56.964;24.128;2023-05-22T01:40:34;102213.50;;;13.63;100.00
7407;BME280;3745;56.964;24.128;2023-05-22T01:43:00;102217.00;;;13.68;100.00
7407;BME280;3745;56.964;24.128;2023-05-22T01:45:25;102238.47;;;13.79;100.00
7407;BME280;3745;56.964;24.128;2023-05-22T01:47:51;102221.38;;;13.73;100.00
7407;BME280;3745;56.964;24.128;2023-05-22T01:50:17;102190.22;;;13.47;100.00
7407;BME280;3745;56.964;24.128;2023-05-22T01:55:37;102230.47;;;13.64;100.00
7407;BME280;3745;56.964;24.128;2023-05-22T02:00:46;102227.72;;;13.54;100.00
7407;BME280;3745;56.964;24.128;2023-05-22T02:03:21;102213.81;;;13.42;100.00
7407;BME280;3745;56.964;24.128;2023-05-22T02:05:52;102234.47;;;13.54;100.00
7407;BME280;3745;56.964;24.128;2023-05-22T02:08:19;102220.00;;;13.51;100.00
7407;BME280;3745;56.964;24.128;2023-05-22T02:10:45;102242.22;;;13.58;100.00
7407;BME280;3745;56.964;24.128;2023-05-22T02:13:13;102237.06;;;13.55;100.00
7407;BME280;3745;56.964;24.128;2023-05-22T02:15:38;102192.38;;;13.32;100.00
7407;BME280;3745;56.964;24.128;2023-05-22T02:18:09;102224.94;;;13.45;100.00
7407;BME280;3745;56.964;24.128;2023-05-22T02:20:37;102228.50;;;13.53;100.00
7407;BME280;3745;56.964;24.128;2023-05-22T02:23:03;102231.91;;;13.52;100.00
7407;BME280;3745;56.964;24.128;2023-05-22T02:25:28;102225.09;;;13.51;100.00
7407;BME280;3745;56.964;24.128;2023-05-22T02:27:54;102232.69;;;13.50;100.00
7407;BME280;3745;56.964;24.128;2023-05-22T02:30:19;102231.03;;;13.52;100.00
7407;BME280;3745;56.964;24.128;2023-05-22T02:32:45;102192.38;;;13.32;100.00
7407;BME280;3745;56.964;24.128;2023-05-22T02:35:11;102226.09;;;13.58;100.00
7407;BME280;3745;56.964;24.128;2023-05-22T02:37:37;102225.22;;;13.57;100.00
7407;BME280;3745;56.964;24.128;2023-05-22T02:40:03;102228.63;;;13.56;100.00
7407;BME280;3745;56.964;24.128;2023-05-22T02:42:32;102211.47;;;13.49;100.00
7407;BME280;3745;56.964;24.128;2023-05-22T02:44:57;102166.81;;;13.26;100.00
7407;BME280;3745;56.964;24.128;2023-05-22T02:47:23;102221.00;;;13.56;100.00
7407;BME280;3745;56.964;24.128;2023-05-22T02:49:48;102160.78;;;13.23;100.00
7407;BME280;3745;56.964;24.128;2023-05-22T02:52:14;102221.81;;;13.55;100.00
7407;BME280;3745;56.964;24.128;2023-05-22T02:54:39;102190.78;;;13.34;100.00
7407;BME280;3745;56.964;24.128;2023-05-22T02:57:06;102218.53;;;13.60;100.00
7407;BME280;3745;56.964;24.128;2023-05-22T02:59:31;102222.03;;;13.65;100.00
7407;BME280;3745;56.964;24.128;2023-05-22T03:01:57;102221.31;;;13.70;100.00
7407;BME280;3745;56.964;24.128;2023-05-22T03:04:23;102212.00;;;13.71;100.00
7407;BME280;3745;56.964;24.128;2023-05-22T03:06:49;102170.78;;;13.49;100.00
7407;BME280;3745;56.964;24.128;2023-05-22T03:09:14;102197.53;;;13.70;100.00
7407;BME280;3745;56.964;24.128;2023-05-22T03:11:41;102206.97;;;13.74;100.00
7407;BME280;3745;56.964;24.128;2023-05-22T03:14:06;102215.75;;;13.86;100.00
7407;BME280;3745;56.964;24.128;2023-05-22T03:16:32;102203.81;;;13.84;100.00
7407;BME280;3745;56.964;24.128;2023-05-22T03:19:14;102198.88;;;13.90;100.00
7407;BME280;3745;56.964;24.128;2023-05-22T03:21:41;102211.13;;;14.09;100.00
7407;BME280;3745;56.964;24.128;2023-05-22T03:24:08;102140.81;;;13.75;100.00
7407;BME280;3745;56.964;24.128;2023-05-22T03:26:34;102209.56;;;14.14;100.00
7407;BME280;3745;56.964;24.128;2023-05-22T03:29:00;102199.38;;;14.14;100.00
7407;BME280;3745;56.964;24.128;2023-05-22T03:31:27;102194.44;;;14.20;100.00
7407;BME280;3745;56.964;24.128;2023-05-22T03:33:52;102187.66;;;14.22;100.00
7407;BME280;3745;56.964;24.128;2023-05-22T03:36:19;102203.34;;;14.40;100.00
7407;BME280;3745;56.964;24.128;2023-05-22T03:38:46;102189.59;;;14.32;100.00
7407;BME280;3745;56.964;24.128;2023-05-22T03:41:11;102177.81;;;14.37;100.00
7407;BME280;3745;56.964;24.128;2023-05-22T03:43:37;102202.78;;;14.53;100.00
7407;BME280;3745;56.964;24.128;2023-05-22T03:46:03;102196.91;;;14.57;100.00
7407;BME280;3745;56.964;24.128;2023-05-22T03:48:28;102189.41;;;14.65;100.00
7407;BME280;3745;56.964;24.128;2023-05-22T03:50:54;102192.97;;;14.73;100.00
7407;BME280;3745;56.964;24.128;2023-05-22T03:53:19;102189.69;;;14.80;100.00
7407;BME280;3745;56.964;24.128;2023-05-22T03:55:45;102132.25;;;14.52;100.00
7407;BME280;3745;56.964;24.128;2023-05-22T03:58:10;102159.91;;;14.78;100.00
7407;BME280;3745;56.964;24.128;2023-05-22T04:00:36;102185.78;;;14.99;100.00
7407;BME280;3745;56.964;24.128;2023-05-22T04:03:03;102131.06;;;14.79;100.00
7407;BME280;3745;56.964;24.128;2023-05-22T04:05:28;102176.00;;;15.23;100.00
7407;BME280;3745;56.964;24.128;2023-05-22T04:07:56;102173.59;;;15.32;100.00
7407;BME280;3745;56.964;24.128;2023-05-22T04:10:21;102160.75;;;15.26;100.00
7407;BME280;3745;56.964;24.128;2023-05-22T04:12:48;102132.59;;;15.20;100.00
7407;BME280;3745;56.964;24.128;2023-05-22T04:15:14;102134.44;;;15.29;100.00
7407;BME280;3745;56.964;24.128;2023-05-22T04:17:40;102173.22;;;15.60;100.00
7407;BME280;3745;56.964;24.128;2023-05-22T04:20:06;102129.53;;;15.41;100.00
7407;BME280;3745;56.964;24.128;2023-05-22T04:22:33;102143.41;;;15.56;100.00
7407;BME280;3745;56.964;24.128;2023-05-22T04:24:58;102171.94;;;15.90;100.00
7407;BME280;3745;56.964;24.128;2023-05-22T04:27:24;102168.63;;;15.97;100.00
7407;BME280;3745;56.964;24.128;2023-05-22T04:29:50;102168.78;;;16.09;100.00
7407;BME280;3745;56.964;24.128;2023-05-22T04:32:17;102120.94;;;15.93;100.00
7407;BME280;3745;56.964;24.128;2023-05-22T04:34:47;102162.25;;;16.29;100.00
7407;BME280;3745;56.964;24.128;2023-05-22T04:37:12;102162.31;;;16.35;100.00
7407;BME280;3745;56.964;24.128;2023-05-22T04:39:39;102131.56;;;16.29;100.00
7407;BME280;3745;56.964;24.128;2023-05-22T04:42:05;102099.03;;;16.13;100.00
7407;BME280;3745;56.964;24.128;2023-05-22T04:44:31;102148.97;;;16.57;100.00
7407;BME280;3745;56.964;24.128;2023-05-22T04:47:02;102123.25;;;16.45;100.00
7407;BME280;3745;56.964;24.128;2023-05-22T04:49:28;102160.16;;;16.70;100.00
7407;BME280;3745;56.964;24.128;2023-05-22T04:51:54;102156.00;;;16.79;100.00
7407;BME280;3745;56.964;24.128;2023-05-22T04:54:22;102092.69;;;16.54;100.00
7407;BME280;3745;56.964;24.128;2023-05-22T04:56:48;102152.75;;;16.99;100.00
7407;BME280;3745;56.964;24.128;2023-05-22T04:59:16;102099.78;;;16.83;100.00
7407;BME280;3745;56.964;24.128;2023-05-22T05:01:44;102091.28;;;16.90;100.00
7407;BME280;3745;56.964;24.128;2023-05-22T05:04:10;102149.66;;;17.36;100.00
7407;BME280;3745;56.964;24.128;2023-05-22T05:06:36;102148.06;;;17.50;100.00
7407;BME280;3745;56.964;24.128;2023-05-22T05:09:05;102125.00;;;17.47;100.00
7407;BME280;3745;56.964;24.128;2023-05-22T05:11:31;102153.34;;;17.71;100.00
7407;BME280;3745;56.964;24.128;2023-05-22T05:13:56;102144.78;;;17.72;100.00
7407;BME280;3745;56.964;24.128;2023-05-22T05:16:23;102154.31;;;17.90;100.00
7407;BME280;3745;56.964;24.128;2023-05-22T05:18:50;102069.63;;;17.58;100.00
7407;BME280;3745;56.964;24.128;2023-05-22T05:21:17;102144.16;;;18.22;100.00
7407;BME280;3745;56.964;24.128;2023-05-22T05:23:44;102127.94;;;18.20;100.00
7407;BME280;3745;56.964;24.128;2023-05-22T05:26:10;102148.50;;;18.41;100.00
7407;BME280;3745;56.964;24.128;2023-05-22T05:28:36;102145.16;;;18.57;100.00
7407;BME280;3745;56.964;24.128;2023-05-22T05:31:02;102148.59;;;18.71;100.00
7407;BME280;3745;56.964;24.128;2023-05-22T05:33:27;102068.19;;;18.42;100.00
7407;BME280;3745;56.964;24.128;2023-05-22T05:35:53;102150.34;;;19.03;100.00
7407;BME280;3745;56.964;24.128;2023-05-22T05:38:18;102152.06;;;19.07;100.00
7407;BME280;3745;56.964;24.128;2023-05-22T05:40:44;102145.22;;;19.15;100.00
7407;BME280;3745;56.964;24.128;2023-05-22T05:43:10;102133.22;;;19.17;100.00
7407;BME280;3745;56.964;24.128;2023-05-22T05:45:39;102111.00;;;19.19;100.00
7407;BME280;3745;56.964;24.128;2023-05-22T05:48:05;102134.91;;;19.36;100.00
7407;BME280;3745;56.964;24.128;2023-05-22T05:50:31;102153.78;;;19.59;100.00
7407;BME280;3745;56.964;24.128;2023-05-22T05:52:56;102149.50;;;19.46;100.00
7407;BME280;3745;56.964;24.128;2023-05-22T05:55:22;102107.53;;;19.23;100.00
7407;BME280;3745;56.964;24.128;2023-05-22T05:57:48;102105.88;;;19.16;100.00
7407;BME280;3745;56.964;24.128;2023-05-22T06:00:13;102137.50;;;19.45;100.00
7407;BME280;3745;56.964;24.128;2023-05-22T06:02:39;102138.38;;;19.53;100.00
7407;BME280;3745;56.964;24.128;2023-05-22T06:05:06;102134.88;;;19.66;100.00
7407;BME280;3745;56.964;24.128;2023-05-22T06:07:33;102134.84;;;19.75;100.00
7407;BME280;3745;56.964;24.128;2023-05-22T06:10:04;102141.72;;;19.79;100.00
7407;BME280;3745;56.964;24.128;2023-05-22T06:12:30;102136.56;;;19.82;100.00
7407;BME280;3745;56.964;24.128;2023-05-22T06:14:55;102126.34;;;19.67;100.00
7407;BME280;3745;56.964;24.128;2023-05-22T06:17:21;102136.56;;;19.82;100.00
7407;BME280;3745;56.964;24.128;2023-05-22T06:19:47;102107.50;;;19.65;100.00
7407;BME280;3745;56.964;24.128;2023-05-22T06:22:12;102134.78;;;20.02;100.00
7407;BME280;3745;56.964;24.128;2023-05-22T06:24:38;102130.44;;;20.09;100.00
7407;BME280;3745;56.964;24.128;2023-05-22T06:27:04;102088.56;;;19.87;100.00
7407;BME280;3745;56.964;24.128;2023-05-22T06:29:29;102139.84;;;20.21;100.00
7407;BME280;3745;56.964;24.128;2023-05-22T06:31:55;102124.44;;;20.15;100.00
7407;BME280;3745;56.964;24.128;2023-05-22T06:34:21;102126.97;;;20.19;98.48
7407;BME280;3745;56.964;24.128;2023-05-22T06:36:47;102109.06;;;20.09;98.84
7407;BME280;3745;56.964;24.128;2023-05-22T06:39:15;102117.59;;;20.11;99.98
7407;BME280;3745;56.964;24.128;2023-05-22T06:41:41;102126.13;;;20.16;96.07
7407;BME280;3745;56.964;24.128;2023-05-22T06:44:07;102073.94;;;20.01;92.68
7407;BME280;3745;56.964;24.128;2023-05-22T06:46:32;102117.53;;;20.29;92.00
7407;BME280;3745;56.964;24.128;2023-05-22T06:48:58;102078.13;;;20.27;91.92
7407;BME280;3745;56.964;24.128;2023-05-22T06:51:23;102102.00;;;20.47;100.00
7407;BME280;3745;56.964;24.128;2023-05-22T06:53:49;102100.25;;;20.49;100.00
7407;BME280;3745;56.964;24.128;2023-05-22T06:56:14;102088.22;;;20.57;100.00
7407;BME280;3745;56.964;24.128;2023-05-22T06:58:40;102105.34;;;20.55;100.00
7407;BME280;3745;56.964;24.128;2023-05-22T07:01:06;102079.69;;;20.46;100.00
7407;BME280;3745;56.964;24.128;2023-05-22T07:03:32;102076.19;;;20.56;100.00
7407;BME280;3745;56.964;24.128;2023-05-22T07:05:57;102096.69;;;20.68;100.00
7407;BME280;3745;56.964;24.128;2023-05-22T07:08:24;102030.88;;;20.41;100.00
7407;BME280;3745;56.964;24.128;2023-05-22T07:10:50;102069.28;;;20.61;100.00
7407;BME280;3745;56.964;24.128;2023-05-22T07:13:16;102094.88;;;20.82;100.00
7407;BME280;3745;56.964;24.128;2023-05-22T07:15:42;102084.66;;;20.73;100.00
7407;BME280;3745;56.964;24.128;2023-05-22T07:18:08;102075.19;;;20.75;100.00
7407;BME280;3745;56.964;24.128;2023-05-22T07:20:35;102078.59;;;20.79;100.00
7407;BME280;3745;56.964;24.128;2023-05-22T07:23:01;102091.28;;;20.98;100.00
7407;BME280;3745;56.964;24.128;2023-05-22T07:25:27;102094.66;;;21.06;100.00
7407;BME280;3745;56.964;24.128;2023-05-22T07:27:53;102042.56;;;20.77;100.00
7407;BME280;3745;56.964;24.128;2023-05-22T07:30:20;102089.56;;;21.00;100.00
7407;BME280;3745;56.964;24.128;2023-05-22T07:32:47;102082.63;;;21.12;100.00
7407;BME280;3745;56.964;24.128;2023-05-22T07:35:12;102089.53;;;21.06;100.00
7407;BME280;3745;56.964;24.128;2023-05-22T07:37:38;102087.78;;;21.12;100.00
7407;BME280;3745;56.964;24.128;2023-05-22T07:40:04;102048.41;;;20.97;100.00
7407;BME280;3745;56.964;24.128;2023-05-22T07:42:31;102062.03;;;21.12;100.00
7407;BME280;3745;56.964;24.128;2023-05-22T07:44:57;102066.34;;;21.05;100.00
7407;BME280;3745;56.964;24.128;2023-05-22T07:47:23;102085.91;;;21.26;100.00
7407;BME280;3745;56.964;24.128;2023-05-22T07:49:49;102075.56;;;21.32;98.74
7407;BME280;3745;56.964;24.128;2023-05-22T07:52:14;102079.78;;;21.40;96.33
7407;BME280;3745;56.964;24.128;2023-05-22T07:54:40;102084.97;;;21.37;94.82
7407;BME280;3745;56.964;24.128;2023-05-22T07:57:07;102065.97;;;21.46;92.78
7407;BME280;3745;56.964;24.128;2023-05-22T07:59:33;102081.16;;;21.69;90.59
7407;BME280;3745;56.964;24.128;2023-05-22T08:02:00;102071.00;;;21.53;84.84
7407;BME280;3745;56.964;24.128;2023-05-22T08:04:25;102037.59;;;21.47;85.59
7407;BME280;3745;56.964;24.128;2023-05-22T08:06:51;102071.69;;;21.69;82.37
7407;BME280;3745;56.964;24.128;2023-05-22T08:09:17;102045.31;;;21.47;81.03
7407;BME280;3745;56.964;24.128;2023-05-22T08:11:45;102070.13;;;21.59;81.63
7407;BME280;3745;56.964;24.128;2023-05-22T08:14:11;102030.84;;;21.36;81.50
7407;BME280;3745;56.964;24.128;2023-05-22T08:16:36;102044.53;;;21.44;79.65
7407;BME280;3745;56.964;24.128;2023-05-22T08:19:02;102052.06;;;21.59;81.93
7407;BME280;3745;56.964;24.128;2023-05-22T08:21:28;102063.13;;;21.67;77.33
7407;BME280;3745;56.964;24.128;2023-05-22T08:23:53;102034.03;;;21.59;78.65
7407;BME280;3745;56.964;24.128;2023-05-22T08:26:19;102049.34;;;21.71;78.65
7407;BME280;3745;56.964;24.128;2023-05-22T08:28:44;102053.44;;;21.86;78.37
7407;BME280;3745;56.964;24.128;2023-05-22T08:31:18;102050.88;;;21.84;75.06
7407;BME280;3745;56.964;24.128;2023-05-22T08:33:48;102059.50;;;21.83;74.55
7407;BME280;3745;56.964;24.128;2023-05-22T08:36:14;102051.69;;;21.88;74.55
7407;BME280;3745;56.964;24.128;2023-05-22T08:38:40;101940.00;;;21.25;74.08
7407;BME280;3745;56.964;24.128;2023-05-22T08:41:07;102013.41;;;21.59;73.45
7407;BME280;3745;56.964;24.128;2023-05-22T08:43:34;101994.59;;;21.52;74.28
7407;BME280;3745;56.964;24.128;2023-05-22T08:46:03;102025.28;;;21.69;72.55
7407;BME280;3745;56.964;24.128;2023-05-22T08:48:34;102039.69;;;21.88;75.39
7407;BME280;3745;56.964;24.128;2023-05-22T08:51:12;102004.47;;;21.84;73.17
7407;BME280;3745;56.964;24.128;2023-05-22T08:53:39;102048.09;;;22.02;70.90
7407;BME280;3745;56.964;24.128;2023-05-22T08:56:07;101975.66;;;21.55;70.87
7407;BME280;3745;56.964;24.128;2023-05-22T08:58:36;102048.06;;;22.04;69.42
7407;BME280;3745;56.964;24.128;2023-05-22T09:01:04;102035.13;;;22.08;69.89
7407;BME280;3745;56.964;24.128;2023-05-22T09:03:31;102030.91;;;22.01;69.82
7407;BME280;3745;56.964;24.128;2023-05-22T09:05:59;102038.56;;;22.07;68.35
7407;BME280;3745;56.964;24.128;2023-05-22T09:08:26;102035.22;;;22.02;68.32
7407;BME280;3745;56.964;24.128;2023-05-22T09:10:53;102035.41;;;21.84;68.41
7407;BME280;3745;56.964;24.128;2023-05-22T09:13:29;102030.16;;;21.93;70.26
7407;BME280;3745;56.964;24.128;2023-05-22T09:16:14;102013.19;;;21.77;69.75
7407;BME280;3745;56.964;24.128;2023-05-22T09:18:40;102034.31;;;22.03;70.23
7407;BME280;3745;56.964;24.128;2023-05-22T09:21:10;102029.81;;;22.18;70.84
7407;BME280;3745;56.964;24.128;2023-05-22T09:23:37;101999.25;;;21.87;69.52
7407;BME280;3745;56.964;24.128;2023-05-22T09:26:03;102028.22;;;22.10;70.78
7407;BME280;3745;56.964;24.128;2023-05-22T09:28:35;102019.50;;;22.18;71.04
7407;BME280;3745;56.964;24.128;2023-05-22T09:31:02;102026.25;;;22.25;70.18
7407;BME280;3745;56.964;24.128;2023-05-22T09:33:28;102020.03;;;22.38;69.49
7407;BME280;3745;56.964;24.128;2023-05-22T09:35:54;102009.06;;;22.27;68.30
7407;BME280;3745;56.964;24.128;2023-05-22T09:38:28;101974.75;;;22.19;68.10
7407;BME280;3745;56.964;24.128;2023-05-22T09:40:55;102015.41;;;22.58;67.64
7407;BME280;3745;56.964;24.128;2023-05-22T09:43:21;102006.72;;;22.65;66.54
7407;BME280;3745;56.964;24.128;2023-05-22T09:45:59;102004.41;;;22.47;66.84
7407;BME280;3745;56.964;24.128;2023-05-22T09:48:25;102006.88;;;22.53;67.20
7407;BME280;3745;56.964;24.128;2023-05-22T09:50:54;101979.53;;;22.43;67.07
7407;BME280;3745;56.964;24.128;2023-05-22T09:53:26;101945.72;;;22.07;65.87
7407;BME280;3745;56.964;24.128;2023-05-22T09:55:55;101984.94;;;22.28;66.35
7407;BME280;3745;56.964;24.128;2023-05-22T09:58:24;101931.13;;;22.06;65.47
7407;BME280;3745;56.964;24.128;2023-05-22T10:00:51;101979.88;;;22.22;65.41
7407;BME280;3745;56.964;24.128;2023-05-22T10:03:21;101937.34;;;21.93;65.93
7407;BME280;3745;56.964;24.128;2023-05-22T10:05:51;101986.78;;;22.20;65.79
7407;BME280;3745;56.964;24.128;2023-05-22T10:08:21;101971.66;;;21.98;65.26
7407;BME280;3745;56.964;24.128;2023-05-22T10:10:50;101971.31;;;22.20;66.14
7407;BME280;3745;56.964;24.128;2023-05-22T10:13:19;101950.84;;;22.10;65.19
7407;BME280;3745;56.964;24.128;2023-05-22T10:15:49;101974.50;;;22.34;65.97
7407;BME280;3745;56.964;24.128;2023-05-22T10:18:15;101975.75;;;22.62;65.44
7407;BME280;3745;56.964;24.128;2023-05-22T10:20:42;101931.34;;;22.45;64.68
7407;BME280;3745;56.964;24.128;2023-05-22T10:23:09;101951.63;;;22.66;62.64
7407;BME280;3745;56.964;24.128;2023-05-22T10:25:38;101970.59;;;22.62;62.48
7407;BME280;3745;56.964;24.128;2023-05-22T10:28:04;101966.97;;;22.75;63.89
7407;BME280;3745;56.964;24.128;2023-05-22T10:30:46;101970.00;;;22.95;63.75
7407;BME280;3745;56.964;24.128;2023-05-22T10:33:18;101964.66;;;23.04;61.39
7407;BME280;3745;56.964;24.128;2023-05-22T10:35:55;101972.09;;;23.19;62.08
7407;BME280;3745;56.964;24.128;2023-05-22T10:41:09;101951.28;;;22.84;60.64
7407;BME280;3745;56.964;24.128;2023-05-22T10:43:41;101952.31;;;22.76;60.79
7407;BME280;3745;56.964;24.128;2023-05-22T10:46:08;101803.09;;;22.05;62.30
7407;BME280;3745;56.964;24.128;2023-05-22T10:48:40;101932.09;;;22.97;62.20
7407;BME280;3745;56.964;24.128;2023-05-22T10:51:06;101925.16;;;22.99;59.65
7407;BME280;3745;56.964;24.128;2023-05-22T10:53:33;101945.34;;;23.23;60.50
7407;BME280;3745;56.964;24.128;2023-05-22T10:56:10;101919.25;;;23.36;60.01
7407;BME280;3745;56.964;24.128;2023-05-22T10:58:36;101928.69;;;23.37;57.62
7407;BME280;3745;56.964;24.128;2023-05-22T11:01:18;101926.38;;;23.25;59.04
7407;BME280;3745;56.964;24.128;2023-05-22T11:03:58;101921.81;;;23.37;58.10
7407;BME280;3745;56.964;24.128;2023-05-22T11:06:48;101926.91;;;23.39;57.26
7407;BME280;3745;56.964;24.128;2023-05-22T11:11:43;101923.22;;;23.10;56.99
7407;BME280;3745;56.964;24.128;2023-05-22T11:14:15;101926.63;;;23.12;58.44
7407;BME280;3745;56.964;24.128;2023-05-22T11:16:41;101879.31;;;22.67;58.07
7407;BME280;3745;56.964;24.128;2023-05-22T11:19:08;101902.13;;;22.89;59.52
7407;BME280;3745;56.964;24.128;2023-05-22T11:21:46;101904.75;;;22.87;57.97
7407;BME280;3745;56.964;24.128;2023-05-22T11:24:14;101925.13;;;23.02;57.39
7407;BME280;3745;56.964;24.128;2023-05-22T11:26:41;101911.75;;;22.82;57.12
7407;BME280;3745;56.964;24.128;2023-05-22T11:29:07;101910.16;;;22.75;58.24
7407;BME280;3745;56.964;24.128;2023-05-22T11:31:34;101901.59;;;22.73;58.34
7407;BME280;3745;56.964;24.128;2023-05-22T11:34:02;101926.38;;;22.82;58.32
7407;BME280;3745;56.964;24.128;2023-05-22T11:36:28;101919.16;;;22.53;59.53
7407;BME280;3745;56.964;24.128;2023-05-22T11:38:59;101910.75;;;22.42;59.87
7407;BME280;3745;56.964;24.128;2023-05-22T11:41:37;101876.75;;;22.19;59.75
7407;BME280;3745;56.964;24.128;2023-05-22T11:44:06;101919.19;;;22.50;60.81
7407;BME280;3745;56.964;24.128;2023-05-22T11:46:32;101886.63;;;22.43;60.59
7407;BME280;3745;56.964;24.128;2023-05-22T11:48:58;101900.16;;;22.57;59.33
7407;BME280;3745;56.964;24.128;2023-05-22T11:51:24;101883.00;;;22.53;60.93
7407;BME280;3745;56.964;24.128;2023-05-22T11:53:51;101899.97;;;22.69;60.66
7407;BME280;3745;56.964;24.128;2023-05-22T11:56:19;101840.19;;;22.43;59.81
7407;BME280;3745;56.964;24.128;2023-05-22T11:58:47;101891.34;;;22.70;58.66
7407;BME280;3745;56.964;24.128;2023-05-22T12:01:13;101896.78;;;22.52;60.48
7407;BME280;3745;56.964;24.128;2023-05-22T12:03:39;101893.41;;;22.50;61.71
7407;BME280;3745;56.964;24.128;2023-05-22T12:06:04;101890.34;;;22.30;59.94
7407;BME280;3745;56.964;24.128;2023-05-22T12:08:30;101868.63;;;21.92;60.15
7407;BME280;3745;56.964;24.128;2023-05-22T12:10:56;101868.56;;;21.95;62.14
7407;BME280;3745;56.964;24.128;2023-05-22T12:13:27;101870.47;;;21.81;61.81
7407;BME280;3745;56.964;24.128;2023-05-22T12:15:56;101884.28;;;21.77;63.02
7407;BME280;3745;56.964;24.128;2023-05-22T12:18:23;101840.72;;;21.60;64.13
7407;BME280;3745;56.964;24.128;2023-05-22T12:20:53;101885.78;;;21.93;64.45
7407;BME280;3745;56.964;24.128;2023-05-22T12:23:26;101873.84;;;21.86;64.92
7407;BME280;3745;56.964;24.128;2023-05-22T12:26:02;101882.22;;;22.00;63.57
7407;BME280;3745;56.964;24.128;2023-05-22T12:28:30;101872.97;;;21.89;59.66
7407;BME280;3745;56.964;24.128;2023-05-22T12:30:57;101875.72;;;21.75;59.35
7407;BME280;3745;56.964;24.128;2023-05-22T12:33:29;101874.03;;;21.74;60.94
7407;BME280;3745;56.964;24.128;2023-05-22T12:35:56;101868.97;;;21.68;62.07
7407;BME280;3745;56.964;24.128;2023-05-22T12:38:29;101868.13;;;21.68;63.06
7407;BME280;3745;56.964;24.128;2023-05-22T12:40:55;101822.16;;;21.40;62.78
7407;BME280;3745;56.964;24.128;2023-05-22T12:43:22;101875.03;;;21.66;64.13
7407;BME280;3745;56.964;24.128;2023-05-22T12:45:49;101857.97;;;21.57;64.53
7407;BME280;3745;56.964;24.128;2023-05-22T12:48:18;101872.50;;;21.61;62.62
7407;BME280;3745;56.964;24.128;2023-05-22T12:50:44;101840.16;;;21.42;63.55
7407;BME280;3745;56.964;24.128;2023-05-22T12:53:11;101867.69;;;21.40;63.02
7407;BME280;3745;56.964;24.128;2023-05-22T12:55:37;101861.66;;;21.39;63.64
7407;BME280;3745;56.964;24.128;2023-05-22T12:58:04;101843.75;;;21.32;63.56
7407;BME280;3745;56.964;24.128;2023-05-22T13:00:29;101860.63;;;21.51;63.82
7407;BME280;3745;56.964;24.128;2023-05-22T13:02:55;101857.16;;;21.55;64.32
7407;BME280;3745;56.964;24.128;2023-05-22T13:05:21;101846.88;;;21.52;64.31
7407;BME280;3745;56.964;24.128;2023-05-22T13:07:47;101850.09;;;21.66;65.17
7407;BME280;3745;56.964;24.128;2023-05-22T13:10:12;101859.44;;;21.73;66.71
7407;BME280;3745;56.964;24.128;2023-05-22T13:12:38;101845.84;;;21.63;64.00
7407;BME280;3745;56.964;24.128;2023-05-22T13:15:05;101850.94;;;21.67;64.26
7407;BME280;3745;56.964;24.128;2023-05-22T13:17:30;101855.19;;;21.69;63.72
7407;BME280;3745;56.964;24.128;2023-05-22T13:19:57;101852.00;;;21.55;64.27